sensor_id;sensor_type;location;lat;lon;timestamp;P1;durP1;ratioP1;P2;durP2;ratioP2
2021;SDS011;1015;49.756;6.994;2023-04-16T00:00:49;2.53;;;2.33;;
2021;SDS011;1015;49.756;6.994;2023-04-16T00:03:17;3.80;;;2.80;;
2021;SDS011;1015;49.756;6.994;2023-04-16T00:05:44;2.60;;;2.40;;
2021;SDS011;1015;49.756;6.994;2023-04-16T00:08:11;4.23;;;2.73;;
2021;SDS011;1015;49.756;6.994;2023-04-16T00:10:40;2.60;;;2.40;;
2021;SDS011;1015;49.756;6.994;2023-04-16T00:13:07;3.70;;;3.00;;
2021;SDS011;1015;49.756;6.994;2023-04-16T00:15:34;3.10;;;2.80;;
2021;SDS011;1015;49.756;6.994;2023-04-16T00:18:01;3.77;;;3.07;;
2021;SDS011;1015;49.756;6.994;2023-04-16T00:20:29;3.07;;;2.77;;
2021;SDS011;1015;49.756;6.994;2023-04-16T00:22:56;4.43;;;2.93;;
2021;SDS011;1015;49.756;6.994;2023-04-16T00:25:23;3.00;;;2.70;;
2021;SDS011;1015;49.756;6.994;2023-04-16T00:27:52;3.40;;;2.80;;
2021;SDS011;1015;49.756;6.994;2023-04-16T00:30:19;4.20;;;2.70;;
2021;SDS011;1015;49.756;6.994;2023-04-16T00:32:47;4.80;;;2.70;;
2021;SDS011;1015;49.756;6.994;2023-04-16T00:35:14;4.03;;;2.80;;
2021;SDS011;1015;49.756;6.994;2023-04-16T00:37:41;3.20;;;2.63;;
2021;SDS011;1015;49.756;6.994;2023-04-16T00:40:09;2.70;;;2.50;;
2021;SDS011;1015;49.756;6.994;2023-04-16T00:42:36;4.00;;;3.03;;
2021;SDS011;1015;49.756;6.994;2023-04-16T00:45:05;3.47;;;3.13;;
2021;SDS011;1015;49.756;6.994;2023-04-16T00:47:33;4.00;;;3.00;;
2021;SDS011;1015;49.756;6.994;2023-04-16T00:50:01;3.73;;;2.97;;
2021;SDS011;1015;49.756;6.994;2023-04-16T00:52:28;5.87;;;3.00;;
2021;SDS011;1015;49.756;6.994;2023-04-16T00:54:57;3.93;;;3.30;;
2021;SDS011;1015;49.756;6.994;2023-04-16T00:57:24;4.47;;;3.20;;
2021;SDS011;1015;49.756;6.994;2023-04-16T00:59:52;4.60;;;3.87;;
2021;SDS011;1015;49.756;6.994;2023-04-16T01:02:21;4.20;;;3.30;;
2021;SDS011;1015;49.756;6.994;2023-04-16T01:04:48;3.77;;;2.90;;
2021;SDS011;1015;49.756;6.994;2023-04-16T01:07:16;4.20;;;3.47;;
2021;SDS011;1015;49.756;6.994;2023-04-16T01:09:43;5.40;;;3.97;;
2021;SDS011;1015;49.756;6.994;2023-04-16T01:12:10;5.00;;;3.60;;
2021;SDS011;1015;49.756;6.994;2023-04-16T01:14:37;5.07;;;3.77;;
2021;SDS011;1015;49.756;6.994;2023-04-16T01:17:05;6.67;;;4.40;;
2021;SDS011;1015;49.756;6.994;2023-04-16T01:19:33;5.77;;;4.50;;
2021;SDS011;1015;49.756;6.994;2023-04-16T01:22:02;4.47;;;3.20;;
2021;SDS011;1015;49.756;6.994;2023-04-16T01:24:30;4.27;;;3.70;;
2021;SDS011;1015;49.756;6.994;2023-04-16T01:26:57;5.10;;;3.77;;
2021;SDS011;1015;49.756;6.994;2023-04-16T01:29:24;5.43;;;3.87;;
2021;SDS011;1015;49.756;6.994;2023-04-16T01:31:51;4.73;;;3.90;;
2021;SDS011;1015;49.756;6.994;2023-04-16T01:34:19;6.13;;;4.33;;
2021;SDS011;1015;49.756;6.994;2023-04-16T01:36:46;6.50;;;4.90;;
2021;SDS011;1015;49.756;6.994;2023-04-16T01:39:15;6.30;;;4.80;;
2021;SDS011;1015;49.756;6.994;2023-04-16T01:41:43;7.63;;;6.10;;
2021;SDS011;1015;49.756;6.994;2023-04-16T01:44:10;7.67;;;5.13;;
2021;SDS011;1015;49.756;6.994;2023-04-16T01:46:38;7.07;;;5.30;;
2021;SDS011;1015;49.756;6.994;2023-04-16T01:49:05;6.53;;;5.43;;
2021;SDS011;1015;49.756;6.994;2023-04-16T01:51:32;6.53;;;5.50;;
2021;SDS011;1015;49.756;6.994;2023-04-16T01:54:00;6.67;;;5.13;;
2021;SDS011;1015;49.756;6.994;2023-04-16T01:56:28;8.60;;;6.40;;
2021;SDS011;1015;49.756;6.994;2023-04-16T01:58:55;10.37;;;6.83;;
2021;SDS011;1015;49.756;6.994;2023-04-16T02:01:23;6.73;;;5.43;;
2021;SDS011;1015;49.756;6.994;2023-04-16T02:03:50;8.83;;;5.93;;
2021;SDS011;1015;49.756;6.994;2023-04-16T02:06:17;8.40;;;6.47;;
2021;SDS011;1015;49.756;6.994;2023-04-16T02:08:45;8.97;;;6.80;;
2021;SDS011;1015;49.756;6.994;2023-04-16T02:11:12;10.63;;;6.73;;
2021;SDS011;1015;49.756;6.994;2023-04-16T02:13:40;9.43;;;6.23;;
2021;SDS011;1015;49.756;6.994;2023-04-16T02:16:08;8.57;;;5.97;;
2021;SDS011;1015;49.756;6.994;2023-04-16T02:18:35;9.77;;;7.17;;
2021;SDS011;1015;49.756;6.994;2023-04-16T02:21:02;10.03;;;6.57;;
2021;SDS011;1015;49.756;6.994;2023-04-16T02:23:30;9.13;;;6.77;;
2021;SDS011;1015;49.756;6.994;2023-04-16T02:25:57;9.80;;;6.63;;
2021;SDS011;1015;49.756;6.994;2023-04-16T02:28:25;9.70;;;6.87;;
2021;SDS011;1015;49.756;6.994;2023-04-16T02:30:53;10.40;;;7.40;;
2021;SDS011;1015;49.756;6.994;2023-04-16T02:33:22;8.93;;;6.37;;
2021;SDS011;1015;49.756;6.994;2023-04-16T02:35:50;8.93;;;6.60;;
2021;SDS011;1015;49.756;6.994;2023-04-16T02:38:18;9.47;;;6.47;;
2021;SDS011;1015;49.756;6.994;2023-04-16T02:40:45;10.33;;;7.40;;
2021;SDS011;1015;49.756;6.994;2023-04-16T02:43:12;9.33;;;6.80;;
2021;SDS011;1015;49.756;6.994;2023-04-16T02:45:39;12.60;;;7.13;;
2021;SDS011;1015;49.756;6.994;2023-04-16T02:48:08;9.77;;;7.23;;
2021;SDS011;1015;49.756;6.994;2023-04-16T02:50:35;10.13;;;7.63;;
2021;SDS011;1015;49.756;6.994;2023-04-16T02:53:02;9.13;;;6.57;;
2021;SDS011;1015;49.756;6.994;2023-04-16T02:55:31;10.23;;;6.30;;
2021;SDS011;1015;49.756;6.994;2023-04-16T02:57:58;12.30;;;7.27;;
2021;SDS011;1015;49.756;6.994;2023-04-16T03:00:26;12.20;;;8.33;;
2021;SDS011;1015;49.756;6.994;2023-04-16T03:02:53;12.47;;;7.50;;
2021;SDS011;1015;49.756;6.994;2023-04-16T03:05:21;11.17;;;7.40;;
2021;SDS011;1015;49.756;6.994;2023-04-16T03:07:49;10.97;;;7.67;;
2021;SDS011;1015;49.756;6.994;2023-04-16T03:10:20;12.03;;;8.10;;
2021;SDS011;1015;49.756;6.994;2023-04-16T03:12:48;12.60;;;8.40;;
2021;SDS011;1015;49.756;6.994;2023-04-16T03:15:15;12.00;;;8.00;;
2021;SDS011;1015;49.756;6.994;2023-04-16T03:17:43;12.20;;;8.20;;
2021;SDS011;1015;49.756;6.994;2023-04-16T03:20:10;14.83;;;8.80;;
2021;SDS011;1015;49.756;6.994;2023-04-16T03:22:39;13.60;;;9.13;;
2021;SDS011;1015;49.756;6.994;2023-04-16T03:25:07;14.03;;;9.70;;
2021;SDS011;1015;49.756;6.994;2023-04-16T03:27:34;15.40;;;9.50;;
2021;SDS011;1015;49.756;6.994;2023-04-16T03:30:04;14.77;;;9.37;;
2021;SDS011;1015;49.756;6.994;2023-04-16T03:32:31;13.40;;;8.83;;
2021;SDS011;1015;49.756;6.994;2023-04-16T03:34:58;13.80;;;9.20;;
2021;SDS011;1015;49.756;6.994;2023-04-16T03:37:26;14.60;;;9.40;;
2021;SDS011;1015;49.756;6.994;2023-04-16T03:39:54;14.20;;;9.20;;
2021;SDS011;1015;49.756;6.994;2023-04-16T03:42:21;15.13;;;9.77;;
2021;SDS011;1015;49.756;6.994;2023-04-16T03:44:48;15.67;;;10.43;;
2021;SDS011;1015;49.756;6.994;2023-04-16T03:47:17;13.97;;;9.70;;
2021;SDS011;1015;49.756;6.994;2023-04-16T03:49:45;16.03;;;10.10;;
2021;SDS011;1015;49.756;6.994;2023-04-16T03:52:12;15.30;;;9.70;;
2021;SDS011;1015;49.756;6.994;2023-04-16T03:54:39;17.80;;;10.00;;
2021;SDS011;1015;49.756;6.994;2023-04-16T03:57:08;15.60;;;9.60;;
2021;SDS011;1015;49.756;6.994;2023-04-16T03:59:35;15.10;;;8.83;;
2021;SDS011;1015;49.756;6.994;2023-04-16T04:02:02;16.30;;;10.20;;
2021;SDS011;1015;49.756;6.994;2023-04-16T04:04:30;16.80;;;9.93;;
2021;SDS011;1015;49.756;6.994;2023-04-16T04:06:57;17.13;;;10.63;;
2021;SDS011;1015;49.756;6.994;2023-04-16T04:09:24;17.87;;;10.37;;
2021;SDS011;1015;49.756;6.994;2023-04-16T04:11:51;17.10;;;10.10;;
2021;SDS011;1015;49.756;6.994;2023-04-16T04:14:20;17.27;;;9.40;;
2021;SDS011;1015;49.756;6.994;2023-04-16T04:16:47;15.27;;;9.70;;
2021;SDS011;1015;49.756;6.994;2023-04-16T04:19:14;17.60;;;10.23;;
2021;SDS011;1015;49.756;6.994;2023-04-16T04:21:42;17.37;;;10.33;;
2021;SDS011;1015;49.756;6.994;2023-04-16T04:24:09;16.07;;;8.67;;
2021;SDS011;1015;49.756;6.994;2023-04-16T04:26:36;14.20;;;9.37;;
2021;SDS011;1015;49.756;6.994;2023-04-16T04:29:03;15.50;;;10.10;;
2021;SDS011;1015;49.756;6.994;2023-04-16T04:31:32;17.40;;;10.07;;
2021;SDS011;1015;49.756;6.994;2023-04-16T04:33:59;14.60;;;9.30;;
2021;SDS011;1015;49.756;6.994;2023-04-16T04:36:26;15.37;;;9.67;;
2021;SDS011;1015;49.756;6.994;2023-04-16T04:38:53;16.60;;;10.30;;
2021;SDS011;1015;49.756;6.994;2023-04-16T04:41:21;17.33;;;9.80;;
2021;SDS011;1015;49.756;6.994;2023-04-16T04:43:48;18.60;;;11.43;;
2021;SDS011;1015;49.756;6.994;2023-04-16T04:46:15;20.87;;;11.17;;
2021;SDS011;1015;49.756;6.994;2023-04-16T04:48:44;18.20;;;11.37;;
2021;SDS011;1015;49.756;6.994;2023-04-16T04:51:11;16.40;;;10.40;;
2021;SDS011;1015;49.756;6.994;2023-04-16T04:53:38;18.83;;;11.40;;
2021;SDS011;1015;49.756;6.994;2023-04-16T04:56:05;16.27;;;10.50;;
2021;SDS011;1015;49.756;6.994;2023-04-16T04:58:33;22.10;;;11.20;;
2021;SDS011;1015;49.756;6.994;2023-04-16T05:01:00;16.83;;;10.83;;
2021;SDS011;1015;49.756;6.994;2023-04-16T05:03:27;17.50;;;11.00;;
2021;SDS011;1015;49.756;6.994;2023-04-16T05:05:56;18.10;;;11.80;;
2021;SDS011;1015;49.756;6.994;2023-04-16T05:08:23;16.73;;;10.70;;
2021;SDS011;1015;49.756;6.994;2023-04-16T05:10:51;16.33;;;10.67;;
2021;SDS011;1015;49.756;6.994;2023-04-16T05:13:18;16.00;;;10.13;;
2021;SDS011;1015;49.756;6.994;2023-04-16T05:15:45;17.40;;;11.30;;
2021;SDS011;1015;49.756;6.994;2023-04-16T05:18:12;16.80;;;11.33;;
2021;SDS011;1015;49.756;6.994;2023-04-16T05:20:40;16.57;;;11.00;;
2021;SDS011;1015;49.756;6.994;2023-04-16T05:23:08;16.60;;;10.10;;
2021;SDS011;1015;49.756;6.994;2023-04-16T05:25:36;16.07;;;10.33;;
2021;SDS011;1015;49.756;6.994;2023-04-16T05:28:03;14.10;;;9.40;;
2021;SDS011;1015;49.756;6.994;2023-04-16T05:30:30;16.77;;;10.17;;
2021;SDS011;1015;49.756;6.994;2023-04-16T05:32:57;16.47;;;10.97;;
2021;SDS011;1015;49.756;6.994;2023-04-16T05:35:25;16.17;;;10.50;;
2021;SDS011;1015;49.756;6.994;2023-04-16T05:37:52;14.80;;;10.70;;
2021;SDS011;1015;49.756;6.994;2023-04-16T05:40:20;14.00;;;9.73;;
2021;SDS011;1015;49.756;6.994;2023-04-16T05:42:48;16.60;;;9.83;;
2021;SDS011;1015;49.756;6.994;2023-04-16T05:45:15;17.90;;;10.27;;
2021;SDS011;1015;49.756;6.994;2023-04-16T05:47:42;13.97;;;9.90;;
2021;SDS011;1015;49.756;6.994;2023-04-16T05:50:10;13.27;;;8.67;;
2021;SDS011;1015;49.756;6.994;2023-04-16T05:52:37;13.77;;;8.97;;
2021;SDS011;1015;49.756;6.994;2023-04-16T05:55:04;16.83;;;9.90;;
2021;SDS011;1015;49.756;6.994;2023-04-16T05:57:33;15.33;;;10.50;;
2021;SDS011;1015;49.756;6.994;2023-04-16T06:00:00;15.63;;;9.53;;
2021;SDS011;1015;49.756;6.994;2023-04-16T06:02:28;14.60;;;9.37;;
2021;SDS011;1015;49.756;6.994;2023-04-16T06:04:55;15.90;;;10.00;;
2021;SDS011;1015;49.756;6.994;2023-04-16T06:07:22;15.57;;;9.53;;
2021;SDS011;1015;49.756;6.994;2023-04-16T06:09:50;15.63;;;9.47;;
2021;SDS011;1015;49.756;6.994;2023-04-16T06:12:17;13.90;;;8.50;;
2021;SDS011;1015;49.756;6.994;2023-04-16T06:14:45;15.33;;;10.27;;
2021;SDS011;1015;49.756;6.994;2023-04-16T06:17:13;15.67;;;9.13;;
2021;SDS011;1015;49.756;6.994;2023-04-16T06:19:40;13.90;;;8.67;;
2021;SDS011;1015;49.756;6.994;2023-04-16T06:22:07;14.43;;;9.23;;
2021;SDS011;1015;49.756;6.994;2023-04-16T06:24:35;15.23;;;9.63;;
2021;SDS011;1015;49.756;6.994;2023-04-16T06:27:02;14.73;;;9.27;;
2021;SDS011;1015;49.756;6.994;2023-04-16T06:29:29;13.20;;;9.13;;
2021;SDS011;1015;49.756;6.994;2023-04-16T06:31:58;14.13;;;9.70;;
2021;SDS011;1015;49.756;6.994;2023-04-16T06:34:26;12.97;;;8.90;;
2021;SDS011;1015;49.756;6.994;2023-04-16T06:36:54;16.40;;;9.50;;
2021;SDS011;1015;49.756;6.994;2023-04-16T06:39:21;17.17;;;10.07;;
2021;SDS011;1015;49.756;6.994;2023-04-16T06:41:48;13.67;;;9.43;;
2021;SDS011;1015;49.756;6.994;2023-04-16T06:44:15;15.07;;;9.70;;
2021;SDS011;1015;49.756;6.994;2023-04-16T06:46:43;13.40;;;9.10;;
2021;SDS011;1015;49.756;6.994;2023-04-16T06:49:11;15.90;;;10.33;;
2021;SDS011;1015;49.756;6.994;2023-04-16T06:51:38;17.40;;;9.90;;
2021;SDS011;1015;49.756;6.994;2023-04-16T06:54:06;16.70;;;10.60;;
2021;SDS011;1015;49.756;6.994;2023-04-16T06:56:33;17.43;;;10.80;;
2021;SDS011;1015;49.756;6.994;2023-04-16T06:59:02;16.13;;;10.03;;
2021;SDS011;1015;49.756;6.994;2023-04-16T07:01:29;17.73;;;10.53;;
2021;SDS011;1015;49.756;6.994;2023-04-16T07:03:56;18.53;;;11.30;;
2021;SDS011;1015;49.756;6.994;2023-04-16T07:06:25;16.20;;;10.20;;
2021;SDS011;1015;49.756;6.994;2023-04-16T07:08:52;17.77;;;10.10;;
2021;SDS011;1015;49.756;6.994;2023-04-16T07:11:20;10.10;;;5.33;;
2021;SDS011;1015;49.756;6.994;2023-04-16T07:13:47;12.20;;;6.77;;
2021;SDS011;1015;49.756;6.994;2023-04-16T07:16:16;12.03;;;6.20;;
2021;SDS011;1015;49.756;6.994;2023-04-16T07:18:43;9.90;;;5.30;;
2021;SDS011;1015;49.756;6.994;2023-04-16T07:21:10;9.70;;;4.70;;
2021;SDS011;1015;49.756;6.994;2023-04-16T07:23:39;8.50;;;4.73;;
2021;SDS011;1015;49.756;6.994;2023-04-16T07:26:06;11.23;;;5.33;;
2021;SDS011;1015;49.756;6.994;2023-04-16T07:28:33;9.90;;;5.00;;
2021;SDS011;1015;49.756;6.994;2023-04-16T07:31:01;7.80;;;4.60;;
2021;SDS011;1015;49.756;6.994;2023-04-16T07:33:28;8.10;;;5.13;;
2021;SDS011;1015;49.756;6.994;2023-04-16T07:35:55;7.80;;;4.80;;
2021;SDS011;1015;49.756;6.994;2023-04-16T07:38:22;10.93;;;5.87;;
2021;SDS011;1015;49.756;6.994;2023-04-16T07:40:51;10.30;;;5.40;;
2021;SDS011;1015;49.756;6.994;2023-04-16T07:43:18;10.93;;;6.00;;
2021;SDS011;1015;49.756;6.994;2023-04-16T07:45:46;13.57;;;5.50;;
2021;SDS011;1015;49.756;6.994;2023-04-16T07:48:13;9.30;;;5.10;;
2021;SDS011;1015;49.756;6.994;2023-04-16T07:50:40;6.80;;;5.17;;
2021;SDS011;1015;49.756;6.994;2023-04-16T07:53:08;11.60;;;7.73;;
2021;SDS011;1015;49.756;6.994;2023-04-16T07:55:35;10.83;;;7.67;;
2021;SDS011;1015;49.756;6.994;2023-04-16T07:58:04;14.90;;;7.93;;
2021;SDS011;1015;49.756;6.994;2023-04-16T08:00:33;13.00;;;7.93;;
2021;SDS011;1015;49.756;6.994;2023-04-16T08:03:00;9.53;;;6.83;;
2021;SDS011;1015;49.756;6.994;2023-04-16T08:05:28;11.30;;;7.97;;
2021;SDS011;1015;49.756;6.994;2023-04-16T08:07:55;12.43;;;7.63;;
2021;SDS011;1015;49.756;6.994;2023-04-16T08:10:22;9.83;;;7.43;;
2021;SDS011;1015;49.756;6.994;2023-04-16T08:12:59;8.60;;;6.83;;
2021;SDS011;1015;49.756;6.994;2023-04-16T08:15:27;11.87;;;7.37;;
2021;SDS011;1015;49.756;6.994;2023-04-16T08:17:55;11.27;;;7.63;;
2021;SDS011;1015;49.756;6.994;2023-04-16T08:20:22;10.20;;;7.03;;
2021;SDS011;1015;49.756;6.994;2023-04-16T08:22:49;8.30;;;6.53;;
2021;SDS011;1015;49.756;6.994;2023-04-16T08:25:16;8.70;;;5.77;;
2021;SDS011;1015;49.756;6.994;2023-04-16T08:27:44;10.77;;;7.87;;
2021;SDS011;1015;49.756;6.994;2023-04-16T08:30:11;9.43;;;7.00;;
2021;SDS011;1015;49.756;6.994;2023-04-16T08:32:41;8.70;;;6.47;;
2021;SDS011;1015;49.756;6.994;2023-04-16T08:35:09;8.27;;;6.53;;
2021;SDS011;1015;49.756;6.994;2023-04-16T08:37:36;10.53;;;7.60;;
2021;SDS011;1015;49.756;6.994;2023-04-16T08:40:03;9.33;;;6.80;;
2021;SDS011;1015;49.756;6.994;2023-04-16T08:42:31;9.47;;;6.77;;
2021;SDS011;1015;49.756;6.994;2023-04-16T08:45:03;9.23;;;6.53;;
2021;SDS011;1015;49.756;6.994;2023-04-16T08:47:33;9.57;;;6.83;;
2021;SDS011;1015;49.756;6.994;2023-04-16T08:50:03;9.73;;;7.30;;
2021;SDS011;1015;49.756;6.994;2023-04-16T08:52:31;10.27;;;7.00;;
2021;SDS011;1015;49.756;6.994;2023-04-16T08:55:02;8.80;;;7.07;;
2021;SDS011;1015;49.756;6.994;2023-04-16T08:57:33;10.53;;;7.13;;
2021;SDS011;1015;49.756;6.994;2023-04-16T09:00:08;9.07;;;6.63;;
2021;SDS011;1015;49.756;6.994;2023-04-16T09:02:35;8.53;;;6.83;;
2021;SDS011;1015;49.756;6.994;2023-04-16T09:05:05;9.10;;;7.17;;
2021;SDS011;1015;49.756;6.994;2023-04-16T09:07:33;8.70;;;6.57;;
2021;SDS011;1015;49.756;6.994;2023-04-16T09:10:00;9.07;;;6.83;;
2021;SDS011;1015;49.756;6.994;2023-04-16T09:12:29;11.03;;;7.37;;
2021;SDS011;1015;49.756;6.994;2023-04-16T09:14:56;9.37;;;6.30;;
2021;SDS011;1015;49.756;6.994;2023-04-16T09:17:26;9.63;;;6.73;;
2021;SDS011;1015;49.756;6.994;2023-04-16T09:19:54;9.70;;;6.60;;
2021;SDS011;1015;49.756;6.994;2023-04-16T09:22:22;9.30;;;6.70;;
2021;SDS011;1015;49.756;6.994;2023-04-16T09:24:49;10.13;;;6.97;;
2021;SDS011;1015;49.756;6.994;2023-04-16T09:27:17;9.50;;;5.90;;
2021;SDS011;1015;49.756;6.994;2023-04-16T09:29:44;8.53;;;6.27;;
2021;SDS011;1015;49.756;6.994;2023-04-16T09:32:13;11.60;;;7.10;;
2021;SDS011;1015;49.756;6.994;2023-04-16T09:34:53;10.70;;;6.77;;
2021;SDS011;1015;49.756;6.994;2023-04-16T09:37:22;9.17;;;6.17;;
2021;SDS011;1015;49.756;6.994;2023-04-16T09:39:54;9.40;;;6.33;;
2021;SDS011;1015;49.756;6.994;2023-04-16T09:42:24;11.27;;;7.17;;
2021;SDS011;1015;49.756;6.994;2023-04-16T09:44:52;10.70;;;6.87;;
2021;SDS011;1015;49.756;6.994;2023-04-16T09:47:20;10.17;;;6.60;;
2021;SDS011;1015;49.756;6.994;2023-04-16T09:49:48;9.13;;;7.00;;
2021;SDS011;1015;49.756;6.994;2023-04-16T09:52:17;10.57;;;7.00;;
2021;SDS011;1015;49.756;6.994;2023-04-16T09:54:49;12.17;;;8.00;;
2021;SDS011;1015;49.756;6.994;2023-04-16T09:57:20;8.77;;;6.43;;
2021;SDS011;1015;49.756;6.994;2023-04-16T09:59:51;10.20;;;7.40;;
2021;SDS011;1015;49.756;6.994;2023-04-16T10:02:25;10.57;;;7.20;;
2021;SDS011;1015;49.756;6.994;2023-04-16T10:04:55;10.30;;;7.10;;
2021;SDS011;1015;49.756;6.994;2023-04-16T10:07:26;11.43;;;7.37;;
2021;SDS011;1015;49.756;6.994;2023-04-16T10:09:56;9.03;;;6.77;;
2021;SDS011;1015;49.756;6.994;2023-04-16T10:12:25;11.07;;;7.27;;
2021;SDS011;1015;49.756;6.994;2023-04-16T10:14:53;11.17;;;7.00;;
2021;SDS011;1015;49.756;6.994;2023-04-16T10:17:21;9.73;;;6.93;;
2021;SDS011;1015;49.756;6.994;2023-04-16T10:19:49;10.27;;;7.57;;
2021;SDS011;1015;49.756;6.994;2023-04-16T10:22:17;9.93;;;6.77;;
2021;SDS011;1015;49.756;6.994;2023-04-16T10:24:44;10.10;;;7.47;;
2021;SDS011;1015;49.756;6.994;2023-04-16T10:27:14;10.10;;;7.00;;
2021;SDS011;1015;49.756;6.994;2023-04-16T10:29:41;9.53;;;7.30;;
2021;SDS011;1015;49.756;6.994;2023-04-16T10:32:09;8.90;;;7.20;;
2021;SDS011;1015;49.756;6.994;2023-04-16T10:34:36;9.90;;;7.60;;
2021;SDS011;1015;49.756;6.994;2023-04-16T10:37:03;9.33;;;6.90;;
2021;SDS011;1015;49.756;6.994;2023-04-16T10:39:31;8.80;;;6.33;;
2021;SDS011;1015;49.756;6.994;2023-04-16T10:42:07;9.83;;;7.27;;
2021;SDS011;1015;49.756;6.994;2023-04-16T10:44:38;9.73;;;6.90;;
2021;SDS011;1015;49.756;6.994;2023-04-16T10:47:08;9.97;;;7.87;;
2021;SDS011;1015;49.756;6.994;2023-04-16T10:49:36;9.40;;;7.17;;
2021;SDS011;1015;49.756;6.994;2023-04-16T10:52:07;11.20;;;7.93;;
2021;SDS011;1015;49.756;6.994;2023-04-16T10:54:34;11.07;;;7.07;;
2021;SDS011;1015;49.756;6.994;2023-04-16T10:57:02;10.13;;;6.97;;
2021;SDS011;1015;49.756;6.994;2023-04-16T10:59:30;7.63;;;6.63;;
2021;SDS011;1015;49.756;6.994;2023-04-16T11:02:00;9.90;;;7.53;;
2021;SDS011;1015;49.756;6.994;2023-04-16T11:04:31;8.70;;;6.90;;
2021;SDS011;1015;49.756;6.994;2023-04-16T11:06:59;9.20;;;7.10;;
2021;SDS011;1015;49.756;6.994;2023-04-16T11:09:43;8.20;;;6.90;;
2021;SDS011;1015;49.756;6.994;2023-04-16T11:12:11;11.40;;;7.27;;
2021;SDS011;1015;49.756;6.994;2023-04-16T11:14:39;9.27;;;7.17;;
2021;SDS011;1015;49.756;6.994;2023-04-16T11:17:07;9.93;;;7.57;;
2021;SDS011;1015;49.756;6.994;2023-04-16T11:19:35;8.40;;;6.37;;
2021;SDS011;1015;49.756;6.994;2023-04-16T11:22:02;8.97;;;6.70;;
2021;SDS011;1015;49.756;6.994;2023-04-16T11:24:30;8.23;;;6.40;;
2021;SDS011;1015;49.756;6.994;2023-04-16T11:26:57;8.07;;;6.43;;
2021;SDS011;1015;49.756;6.994;2023-04-16T11:29:25;8.07;;;6.50;;
2021;SDS011;1015;49.756;6.994;2023-04-16T11:31:55;8.37;;;6.43;;
2021;SDS011;1015;49.756;6.994;2023-04-16T11:34:23;8.70;;;6.13;;
2021;SDS011;1015;49.756;6.994;2023-04-16T11:36:51;8.60;;;6.97;;
2021;SDS011;1015;49.756;6.994;2023-04-16T11:39:18;7.37;;;6.30;;
2021;SDS011;1015;49.756;6.994;2023-04-16T11:41:45;8.83;;;6.40;;
2021;SDS011;1015;49.756;6.994;2023-04-16T11:44:16;7.97;;;6.20;;
2021;SDS011;1015;49.756;6.994;2023-04-16T11:46:44;7.20;;;5.70;;
2021;SDS011;1015;49.756;6.994;2023-04-16T11:49:11;9.90;;;6.50;;
2021;SDS011;1015;49.756;6.994;2023-04-16T11:51:41;8.80;;;6.30;;
2021;SDS011;1015;49.756;6.994;2023-04-16T11:54:08;6.97;;;6.23;;
2021;SDS011;1015;49.756;6.994;2023-04-16T11:56:36;9.70;;;6.63;;
2021;SDS011;1015;49.756;6.994;2023-04-16T11:59:09;7.57;;;6.20;;
2021;SDS011;1015;49.756;6.994;2023-04-16T12:01:37;7.40;;;5.03;;
2021;SDS011;1015;49.756;6.994;2023-04-16T12:04:05;8.27;;;6.07;;
2021;SDS011;1015;49.756;6.994;2023-04-16T12:06:33;8.80;;;6.67;;
2021;SDS011;1015;49.756;6.994;2023-04-16T12:09:20;7.70;;;6.20;;
2021;SDS011;1015;49.756;6.994;2023-04-16T12:11:47;8.40;;;6.07;;
2021;SDS011;1015;49.756;6.994;2023-04-16T12:14:17;8.40;;;6.10;;
2021;SDS011;1015;49.756;6.994;2023-04-16T12:16:44;7.27;;;5.63;;
2021;SDS011;1015;49.756;6.994;2023-04-16T12:19:11;8.63;;;6.30;;
2021;SDS011;1015;49.756;6.994;2023-04-16T12:21:39;9.10;;;6.57;;
2021;SDS011;1015;49.756;6.994;2023-04-16T12:24:09;7.80;;;5.90;;
2021;SDS011;1015;49.756;6.994;2023-04-16T12:26:38;10.00;;;7.03;;
2021;SDS011;1015;49.756;6.994;2023-04-16T12:29:15;8.43;;;6.70;;
2021;SDS011;1015;49.756;6.994;2023-04-16T12:31:43;8.87;;;6.20;;
2021;SDS011;1015;49.756;6.994;2023-04-16T12:34:11;8.50;;;6.47;;
2021;SDS011;1015;49.756;6.994;2023-04-16T12:36:39;7.87;;;6.27;;
2021;SDS011;1015;49.756;6.994;2023-04-16T12:39:06;10.80;;;7.50;;
2021;SDS011;1015;49.756;6.994;2023-04-16T12:41:36;9.47;;;6.70;;
2021;SDS011;1015;49.756;6.994;2023-04-16T12:44:04;11.03;;;7.73;;
2021;SDS011;1015;49.756;6.994;2023-04-16T12:46:33;11.43;;;8.40;;
2021;SDS011;1015;49.756;6.994;2023-04-16T12:49:01;10.17;;;8.30;;
2021;SDS011;1015;49.756;6.994;2023-04-16T12:51:29;11.47;;;8.40;;
2021;SDS011;1015;49.756;6.994;2023-04-16T12:53:56;13.57;;;9.40;;
2021;SDS011;1015;49.756;6.994;2023-04-16T12:56:23;13.13;;;9.30;;
2021;SDS011;1015;49.756;6.994;2023-04-16T12:58:52;11.50;;;8.67;;
2021;SDS011;1015;49.756;6.994;2023-04-16T13:01:19;12.10;;;9.40;;
2021;SDS011;1015;49.756;6.994;2023-04-16T13:03:46;11.07;;;8.60;;
2021;SDS011;1015;49.756;6.994;2023-04-16T13:06:14;13.60;;;9.27;;
2021;SDS011;1015;49.756;6.994;2023-04-16T13:08:42;13.20;;;9.77;;
2021;SDS011;1015;49.756;6.994;2023-04-16T13:11:09;12.63;;;9.10;;
2021;SDS011;1015;49.756;6.994;2023-04-16T13:13:37;9.90;;;8.00;;
2021;SDS011;1015;49.756;6.994;2023-04-16T13:16:05;12.03;;;8.70;;
2021;SDS011;1015;49.756;6.994;2023-04-16T13:18:33;11.93;;;9.00;;
2021;SDS011;1015;49.756;6.994;2023-04-16T13:21:01;10.70;;;9.17;;
2021;SDS011;1015;49.756;6.994;2023-04-16T13:23:28;10.60;;;8.27;;
2021;SDS011;1015;49.756;6.994;2023-04-16T13:25:55;12.93;;;9.40;;
2021;SDS011;1015;49.756;6.994;2023-04-16T13:28:23;12.03;;;9.23;;
2021;SDS011;1015;49.756;6.994;2023-04-16T13:30:51;10.53;;;8.70;;
2021;SDS011;1015;49.756;6.994;2023-04-16T13:33:20;11.67;;;8.53;;
2021;SDS011;1015;49.756;6.994;2023-04-16T13:35:47;14.53;;;9.27;;
2021;SDS011;1015;49.756;6.994;2023-04-16T13:38:15;10.13;;;8.63;;
2021;SDS011;1015;49.756;6.994;2023-04-16T13:40:42;13.17;;;9.20;;
2021;SDS011;1015;49.756;6.994;2023-04-16T13:43:09;13.83;;;9.20;;
2021;SDS011;1015;49.756;6.994;2023-04-16T13:45:37;12.70;;;9.40;;
2021;SDS011;1015;49.756;6.994;2023-04-16T13:48:05;15.23;;;11.20;;
2021;SDS011;1015;49.756;6.994;2023-04-16T13:50:34;12.10;;;9.23;;
2021;SDS011;1015;49.756;6.994;2023-04-16T13:53:01;15.93;;;11.80;;
2021;SDS011;1015;49.756;6.994;2023-04-16T13:55:29;17.70;;;13.37;;
2021;SDS011;1015;49.756;6.994;2023-04-16T13:57:56;17.93;;;13.87;;
2021;SDS011;1015;49.756;6.994;2023-04-16T14:00:24;21.10;;;15.20;;
2021;SDS011;1015;49.756;6.994;2023-04-16T14:02:51;22.70;;;15.80;;
2021;SDS011;1015;49.756;6.994;2023-04-16T14:05:19;19.23;;;13.60;;
2021;SDS011;1015;49.756;6.994;2023-04-16T14:07:48;21.23;;;15.27;;
2021;SDS011;1015;49.756;6.994;2023-04-16T14:10:16;19.17;;;13.20;;
2021;SDS011;1015;49.756;6.994;2023-04-16T14:12:43;20.23;;;15.17;;
2021;SDS011;1015;49.756;6.994;2023-04-16T14:15:10;19.80;;;14.60;;
2021;SDS011;1015;49.756;6.994;2023-04-16T14:17:39;19.17;;;13.73;;
2021;SDS011;1015;49.756;6.994;2023-04-16T14:20:07;19.57;;;14.33;;
2021;SDS011;1015;49.756;6.994;2023-04-16T14:22:34;21.40;;;14.60;;
2021;SDS011;1015;49.756;6.994;2023-04-16T14:25:03;19.77;;;14.23;;
2021;SDS011;1015;49.756;6.994;2023-04-16T14:27:30;18.80;;;13.70;;
2021;SDS011;1015;49.756;6.994;2023-04-16T14:29:58;16.50;;;12.83;;
2021;SDS011;1015;49.756;6.994;2023-04-16T14:32:25;17.37;;;13.60;;
2021;SDS011;1015;49.756;6.994;2023-04-16T14:34:52;17.80;;;13.10;;
2021;SDS011;1015;49.756;6.994;2023-04-16T14:37:20;19.23;;;13.73;;
2021;SDS011;1015;49.756;6.994;2023-04-16T14:39:48;19.00;;;13.10;;
2021;SDS011;1015;49.756;6.994;2023-04-16T14:42:17;16.57;;;12.23;;
2021;SDS011;1015;49.756;6.994;2023-04-16T14:44:44;19.40;;;14.03;;
2021;SDS011;1015;49.756;6.994;2023-04-16T14:47:12;16.40;;;13.17;;
2021;SDS011;1015;49.756;6.994;2023-04-16T14:49:39;20.00;;;12.60;;
2021;SDS011;1015;49.756;6.994;2023-04-16T14:52:06;16.73;;;12.73;;
2021;SDS011;1015;49.756;6.994;2023-04-16T14:54:33;20.60;;;14.30;;
2021;SDS011;1015;49.756;6.994;2023-04-16T14:57:01;18.10;;;14.70;;
2021;SDS011;1015;49.756;6.994;2023-04-16T14:59:29;18.10;;;14.60;;
2021;SDS011;1015;49.756;6.994;2023-04-16T15:01:57;20.50;;;14.80;;
2021;SDS011;1015;49.756;6.994;2023-04-16T15:04:25;20.90;;;15.50;;
2021;SDS011;1015;49.756;6.994;2023-04-16T15:06:52;20.97;;;15.60;;
2021;SDS011;1015;49.756;6.994;2023-04-16T15:09:23;19.17;;;14.60;;